首页
METAR-TAF:

METAR-TAF

机场 :

帶廣機場

帶廣, 日本

纬度: 42-44N, 经度: 143-13E, 海拔: 149米

当前天气观测

该预报发布于8小时和11分钟前的11:34 UTC
风速8节,风向南转南东
温度 14°C
湿度 94%
气压 1010 hPa
能見度: 4900
少量云层高于100英尺
多云层高于200英尺
多云层高于300英尺
轻雾

METAR: RJCB 151134Z 15008KT 4900 BR FEW001 BKN002 BKN003 14/13 Q1010 RMK 1ST001 5ST002 7ST003 A2983

时间: 04:45 (19:45 UTC)

预报

该预报发布于2小时和40分钟前的17:05 UTC
预报有效从15日的 18点(UTC)到 17日的 00点(UTC)
风速4节,风向东南
能見度: 3000
少量云层高于200英尺
多云层高于400英尺
轻雾
短暂存在
从 15日的 18点(UTC)到 15日的 22点(UTC)
能見度: 0700
层高于100英尺
成为
从 16日的 01点(UTC)到 16日的 03点(UTC)
能见度10公里或以上
少量云层高于600英尺
多云层高于1500英尺
短暂存在
从 16日的 09点(UTC)到 16日的 12点(UTC)
能見度: 4000
少量云层高于400英尺
多云层高于600英尺
小阵雨, 轻雾
短暂存在
从 16日的 12点(UTC)到 16日的 15点(UTC)
能見度: 2000
少量云层高于200英尺
多云层高于400英尺
阵雨, 轻雾
短暂存在
从 16日的 15点(UTC)到 17日的 00点(UTC)
能見度: 0700
层高于100英尺
小阵雨, 雾,

TAF: RJCB 151705Z 1518/1700 14004KT 3000 BR FEW002 BKN004 TEMPO 1518/1522 0700 FG VV001 BECMG 1601/1603 9999 NSW FEW006 BKN015 TEMPO 1609/1612 4000 -SHRA BR FEW004 BKN006 TEMPO 1612/1615 2000 SHRA BR FEW002 BKN004 TEMPO 1615/1700 0700 -SHRA FG VV001

超过4000个机场的气象观测和天气预报(METAR&TAF报告)。

可查询的气象台以黄色和红色小点在地图上表示。

将鼠标移到小点上方,可查看气象台名称。

然后点击查看天气观测和预报。

如需切换地图:点击带黑十字的绿色按钮放大地图;点击带横线的绿色按钮缩小地图;或者点击绿色箭头查看邻近地区的地图。


METAR-TAF: